createdAt,value
2023-05-23T00:01:51.115Z,8.30
2023-05-23T00:04:22.270Z,8.60
2023-05-23T00:06:50.984Z,8.40
2023-05-23T00:09:20.089Z,8.50
2023-05-23T00:11:48.596Z,9.10
2023-05-23T00:14:17.279Z,8.20
2023-05-23T00:16:46.678Z,8.30
2023-05-23T00:19:16.399Z,8.80
2023-05-23T00:21:51.428Z,8.90
2023-05-23T00:24:20.801Z,8.50
2023-05-23T00:26:49.386Z,8.60
2023-05-23T00:29:17.943Z,8.20
2023-05-23T00:31:47.214Z,8.60
2023-05-23T00:34:19.875Z,8.90
2023-05-23T00:36:50.718Z,9.40
2023-05-23T00:39:21.974Z,9.50
2023-05-23T00:41:52.586Z,9.10
2023-05-23T00:44:22.342Z,9.10
2023-05-23T00:46:55.586Z,9.50
2023-05-23T00:49:25.045Z,9.20
2023-05-23T00:51:53.476Z,9.60
2023-05-23T00:54:27.566Z,9.50
2023-05-23T00:56:56.389Z,9.50
2023-05-23T00:59:26.292Z,9.60
2023-05-23T01:01:56.614Z,9.70
2023-05-23T01:04:28.696Z,9.30
2023-05-23T01:06:58.026Z,9.80
2023-05-23T01:09:31.214Z,9.90
2023-05-23T01:12:14.517Z,9.10
2023-05-23T01:14:55.361Z,8.70
2023-05-23T01:17:54.997Z,9.20
2023-05-23T01:20:29.126Z,8.80
2023-05-23T01:23:07.143Z,9.30
2023-05-23T01:25:36.522Z,9.20
2023-05-23T01:28:08.233Z,9.20
2023-05-23T01:30:41.386Z,9.10
2023-05-23T01:33:12.037Z,9.40
2023-05-23T01:35:40.912Z,8.80
2023-05-23T01:38:09.634Z,9.50
2023-05-23T01:40:38.263Z,8.70
2023-05-23T01:43:07.504Z,9.30
2023-05-23T01:45:36.534Z,9.50
2023-05-23T01:48:06.623Z,9.80
2023-05-23T01:50:35.427Z,10.20
2023-05-23T01:53:04.749Z,9.60
2023-05-23T01:55:33.400Z,10.20
2023-05-23T01:58:03.316Z,10.30
2023-05-23T02:00:31.813Z,10.70
2023-05-23T02:03:00.396Z,9.00
2023-05-23T02:05:28.981Z,9.60
2023-05-23T02:07:57.496Z,9.50
2023-05-23T02:10:26.605Z,10.00
2023-05-23T02:12:55.382Z,10.30
2023-05-23T02:15:23.927Z,9.80
2023-05-23T02:17:53.400Z,9.50
2023-05-23T02:20:22.030Z,9.50
2023-05-23T02:22:50.712Z,10.10
2023-05-23T02:25:19.065Z,8.70
2023-05-23T02:27:47.987Z,8.90
2023-05-23T02:30:17.451Z,9.60
2023-05-23T02:32:46.578Z,9.00
2023-05-23T02:35:15.936Z,9.80
2023-05-23T02:37:44.580Z,9.90
2023-05-23T02:40:13.621Z,10.70
2023-05-23T02:42:42.035Z,9.50
2023-05-23T02:45:10.849Z,9.30
2023-05-23T02:47:40.356Z,9.70
2023-05-23T02:50:09.359Z,9.40
2023-05-23T02:52:37.785Z,9.60
2023-05-23T02:55:07.021Z,9.40
2023-05-23T02:57:35.456Z,10.10
2023-05-23T03:00:04.046Z,9.30
2023-05-23T03:02:33.480Z,9.70
2023-05-23T03:05:02.766Z,10.00
2023-05-23T03:07:34.085Z,9.50
2023-05-23T03:10:02.820Z,9.30
2023-05-23T03:12:32.273Z,9.60
2023-05-23T03:15:01.118Z,9.70
2023-05-23T03:17:29.675Z,9.80
2023-05-23T03:19:59.283Z,9.30
2023-05-23T03:22:28.584Z,9.40
2023-05-23T03:24:57.506Z,9.30
2023-05-23T03:27:27.022Z,9.90
2023-05-23T03:29:56.548Z,9.90
2023-05-23T03:32:25.578Z,9.00
2023-05-23T03:34:54.300Z,10.00
2023-05-23T03:37:22.882Z,10.10
2023-05-23T03:39:51.888Z,9.30
2023-05-23T03:42:20.497Z,9.70
2023-05-23T03:44:50.313Z,10.20
2023-05-23T03:47:18.988Z,10.50
2023-05-23T03:49:48.366Z,10.80
2023-05-23T03:52:17.400Z,11.00
2023-05-23T03:54:47.101Z,11.10
2023-05-23T03:57:16.565Z,10.80
2023-05-23T03:59:45.294Z,10.70
2023-05-23T04:02:14.664Z,10.30
2023-05-23T04:04:44.416Z,10.40
2023-05-23T04:07:13.334Z,10.00
2023-05-23T04:09:41.958Z,9.60
2023-05-23T04:12:12.248Z,9.50
2023-05-23T04:14:44.524Z,9.60
2023-05-23T04:17:15.435Z,10.70
2023-05-23T04:19:46.392Z,9.60
2023-05-23T04:24:47.516Z,10.00
2023-05-23T04:27:18.407Z,10.10
2023-05-23T04:29:49.365Z,9.80
2023-05-23T04:32:23.391Z,9.60
2023-05-23T04:34:54.314Z,9.60
2023-05-23T04:39:57.306Z,8.80
2023-05-23T04:42:30.354Z,8.50
2023-05-23T04:45:02.516Z,8.00
2023-05-23T04:47:37.230Z,8.10
2023-05-23T04:50:08.368Z,7.80
2023-05-23T04:52:39.333Z,8.70
2023-05-23T04:55:11.424Z,8.50
2023-05-23T04:57:42.326Z,7.90
2023-05-23T05:00:13.498Z,7.70
2023-05-23T05:02:45.397Z,7.90
2023-05-23T05:05:16.434Z,8.30
2023-05-23T05:07:49.605Z,7.20
2023-05-23T05:10:19.627Z,7.90
2023-05-23T05:20:11.380Z,7.10
2023-05-23T05:22:40.740Z,7.60
2023-05-23T05:25:10.616Z,7.10
2023-05-23T05:27:39.961Z,6.90
2023-05-23T05:30:10.517Z,7.10
2023-05-23T05:32:38.947Z,7.30
2023-05-23T05:35:08.379Z,7.40
2023-05-23T05:37:36.642Z,8.40
2023-05-23T05:40:08.945Z,7.30
2023-05-23T05:46:37.474Z,6.40
2023-05-23T06:07:26.417Z,6.70
2023-05-23T06:09:26.589Z,6.50
2023-05-23T06:42:21.492Z,5.90
2023-05-23T06:46:04.097Z,5.60
2023-05-23T06:48:32.957Z,5.30
2023-05-23T06:51:01.715Z,5.00
2023-05-23T06:53:30.411Z,5.30
2023-05-23T06:56:16.957Z,4.90
2023-05-23T06:58:47.186Z,5.00
2023-05-23T07:01:16.239Z,5.20
2023-05-23T07:03:46.282Z,4.70
2023-05-23T07:06:15.123Z,5.00
2023-05-23T07:08:44.011Z,4.50
2023-05-23T07:11:12.853Z,5.40
2023-05-23T07:13:41.698Z,5.10
2023-05-23T07:16:10.382Z,5.20
2023-05-23T07:18:38.966Z,5.30
2023-05-23T07:21:07.783Z,5.10
2023-05-23T07:23:36.323Z,4.90
2023-05-23T07:26:05.462Z,5.10
2023-05-23T07:28:34.826Z,5.40
2023-05-23T07:31:03.489Z,5.30
2023-05-23T07:33:34.794Z,5.30
2023-05-23T07:38:58.520Z,4.90
2023-05-23T07:42:40.820Z,4.20
2023-05-23T07:47:28.867Z,4.70
2023-05-23T07:49:43.337Z,4.30
2023-05-23T08:00:45.319Z,3.90
2023-05-23T08:08:27.428Z,4.90
2023-05-23T08:11:45.787Z,4.10
2023-05-23T08:16:20.988Z,4.40
2023-05-23T08:35:53.317Z,3.40
2023-05-23T08:43:12.189Z,3.70
2023-05-23T08:44:57.331Z,4.10
2023-05-23T08:58:46.437Z,3.50
2023-05-23T09:02:36.252Z,3.50
2023-05-23T09:05:28.799Z,3.40
2023-05-23T09:12:18.268Z,4.40
2023-05-23T09:15:50.605Z,3.70
2023-05-23T09:19:14.975Z,3.90
2023-05-23T09:22:19.212Z,3.70
2023-05-23T09:25:04.286Z,3.90
2023-05-23T09:28:42.948Z,3.60
2023-05-23T09:31:56.872Z,4.20
2023-05-23T09:35:24.540Z,3.80
2023-05-23T09:42:39.314Z,4.00
2023-05-23T09:46:03.377Z,3.90
2023-05-23T09:52:01.807Z,4.00
2023-05-23T09:54:30.309Z,3.90
2023-05-23T09:57:02.450Z,3.60
2023-05-23T09:59:35.453Z,3.80
2023-05-23T10:02:08.218Z,4.10
2023-05-23T10:04:38.030Z,3.90
2023-05-23T10:07:18.894Z,4.20
2023-05-23T10:10:03.743Z,3.80
2023-05-23T10:13:03.200Z,4.10
2023-05-23T10:15:38.591Z,3.70
2023-05-23T10:18:17.533Z,3.90
2023-05-23T10:20:52.939Z,4.00
2023-05-23T10:23:21.983Z,4.00
2023-05-23T10:25:51.879Z,4.40
2023-05-23T10:28:24.863Z,4.00
2023-05-23T10:30:53.816Z,4.20
2023-05-23T10:33:23.995Z,3.80
2023-05-23T10:36:05.791Z,3.90
2023-05-23T10:38:47.884Z,3.80
2023-05-23T10:41:26.581Z,4.10
2023-05-23T10:44:07.197Z,4.00
2023-05-23T10:46:55.921Z,3.40
2023-05-23T10:49:44.345Z,4.10
2023-05-23T10:52:17.942Z,4.30
2023-05-23T10:54:55.398Z,4.20
2023-05-23T10:57:30.680Z,4.00
2023-05-23T10:59:59.352Z,3.90
2023-05-23T11:03:25.523Z,3.70
2023-05-23T11:06:03.945Z,3.80
2023-05-23T11:08:48.230Z,3.70
2023-05-23T11:11:18.574Z,3.80
2023-05-23T11:13:53.238Z,3.90
2023-05-23T11:16:33.179Z,4.40
2023-05-23T11:22:02.299Z,3.90
2023-05-23T11:24:54.615Z,4.30
2023-05-23T11:27:38.332Z,4.00
2023-05-23T11:30:15.388Z,4.00
2023-05-23T11:33:01.416Z,4.00
2023-05-23T11:35:31.779Z,4.10
2023-05-23T11:38:03.295Z,4.10
2023-05-23T11:40:34.402Z,4.30
2023-05-23T11:43:06.775Z,4.20
2023-05-23T11:45:38.587Z,4.20
2023-05-23T11:48:15.631Z,4.30
2023-05-23T11:50:54.094Z,4.90
2023-05-23T11:53:26.049Z,4.00
2023-05-23T11:56:00.866Z,4.10
2023-05-23T11:58:31.318Z,4.10
2023-05-23T12:01:07.078Z,4.20
2023-05-23T12:03:46.463Z,4.10
2023-05-23T12:06:24.192Z,4.30
2023-05-23T12:08:53.101Z,4.40
2023-05-23T12:11:24.035Z,4.70
2023-05-23T12:13:53.720Z,4.40
2023-05-23T12:16:22.193Z,4.40
2023-05-23T12:18:53.796Z,4.00
2023-05-23T12:22:18.770Z,5.40
2023-05-23T12:25:21.221Z,4.60
2023-05-23T12:28:30.498Z,4.30
2023-05-23T12:32:29.387Z,4.90
2023-05-23T12:35:58.254Z,4.30
2023-05-23T12:39:48.945Z,4.60
2023-05-23T12:47:27.708Z,4.40
2023-05-23T12:50:18.736Z,4.90
2023-05-23T12:56:24.179Z,4.30
2023-05-23T12:58:54.238Z,4.90
2023-05-23T13:01:23.218Z,4.70
2023-05-23T13:03:51.738Z,4.30
2023-05-23T13:06:20.265Z,4.90
2023-05-23T13:08:51.684Z,5.00
2023-05-23T13:11:20.220Z,4.90
2023-05-23T13:13:50.011Z,7.70
2023-05-23T13:16:18.642Z,5.10
2023-05-23T13:18:47.074Z,7.60
2023-05-23T13:21:16.067Z,6.60
2023-05-23T13:23:44.512Z,14.90
2023-05-23T13:26:14.880Z,9.10
2023-05-23T13:28:43.606Z,15.20
2023-05-23T13:31:12.112Z,4.80
2023-05-23T13:33:40.533Z,4.40
2023-05-23T13:36:44.626Z,5.50
2023-05-23T13:39:13.246Z,13.50
2023-05-23T13:41:41.875Z,5.00
2023-05-23T13:44:10.273Z,5.30
2023-05-23T13:46:38.924Z,5.30
2023-05-23T13:49:07.326Z,4.70
2023-05-23T13:51:37.817Z,4.80
2023-05-23T13:54:06.717Z,5.20
2023-05-23T13:56:35.323Z,5.50
2023-05-23T13:59:03.717Z,5.30
2023-05-23T14:01:32.524Z,5.40
2023-05-23T14:04:01.670Z,5.30
2023-05-23T14:06:30.040Z,5.10
2023-05-23T14:08:58.380Z,5.20
2023-05-23T14:11:26.753Z,5.10
2023-05-23T14:13:56.620Z,5.10
2023-05-23T14:16:25.188Z,4.80
2023-05-23T14:18:53.692Z,5.10
2023-05-23T14:21:22.661Z,5.20
2023-05-23T14:23:51.160Z,5.20
2023-05-23T14:26:19.769Z,5.30
2023-05-23T14:28:48.441Z,5.20
2023-05-23T14:31:16.968Z,5.50
2023-05-23T14:33:45.369Z,5.70
2023-05-23T14:36:13.725Z,5.70
2023-05-23T14:38:45.760Z,5.40
2023-05-23T14:41:14.789Z,5.60
2023-05-23T14:43:43.425Z,5.70
2023-05-23T14:46:12.617Z,6.00
2023-05-23T14:48:42.976Z,5.40
2023-05-23T14:51:14.062Z,5.60
2023-05-23T14:53:49.427Z,5.40
2023-05-23T14:56:18.045Z,5.50
2023-05-23T14:58:46.553Z,5.70
2023-05-23T15:01:15.185Z,6.10
2023-05-23T15:03:43.626Z,5.60
2023-05-23T15:06:12.909Z,5.70
2023-05-23T15:08:41.735Z,5.20
2023-05-23T15:11:10.443Z,6.00
2023-05-23T15:13:38.873Z,5.20
2023-05-23T15:16:07.511Z,5.50
2023-05-23T15:18:41.259Z,5.60
2023-05-23T15:21:12.564Z,5.20
2023-05-23T15:23:41.966Z,5.70
2023-05-23T15:26:10.576Z,5.70
2023-05-23T15:28:39.108Z,5.70
2023-05-23T15:31:07.794Z,5.80
2023-05-23T15:33:36.263Z,5.70
2023-05-23T15:36:05.012Z,5.60
2023-05-23T15:38:33.577Z,5.70
2023-05-23T15:41:02.856Z,5.80
2023-05-23T15:43:32.889Z,5.10
2023-05-23T15:46:02.043Z,5.60
2023-05-23T15:48:30.731Z,6.00
2023-05-23T15:50:59.159Z,5.40
2023-05-23T15:53:28.390Z,5.60
2023-05-23T15:55:57.801Z,5.90
2023-05-23T15:58:26.269Z,5.70
2023-05-23T16:00:54.636Z,5.60
2023-05-23T16:03:23.118Z,5.40
2023-05-23T16:05:51.833Z,5.70
2023-05-23T16:08:22.034Z,5.80
2023-05-23T16:10:53.209Z,6.00
2023-05-23T16:13:21.687Z,6.60
2023-05-23T16:15:50.065Z,6.20
2023-05-23T16:18:18.603Z,6.00
2023-05-23T16:20:47.194Z,5.90
2023-05-23T16:23:15.750Z,5.70
2023-05-23T16:25:45.269Z,6.00
2023-05-23T16:28:13.958Z,6.00
2023-05-23T16:30:42.566Z,6.30
2023-05-23T16:33:11.059Z,6.20
2023-05-23T16:35:39.840Z,6.00
2023-05-23T16:38:08.622Z,6.30
2023-05-23T16:40:38.651Z,6.50
2023-05-23T16:43:07.161Z,6.40
2023-05-23T16:45:35.743Z,6.40
2023-05-23T16:48:04.376Z,7.20
2023-05-23T16:50:32.854Z,6.40
2023-05-23T16:53:01.521Z,6.50
2023-05-23T16:55:29.946Z,6.60
2023-05-23T16:57:58.426Z,6.60
2023-05-23T17:00:38.963Z,6.30
2023-05-23T17:07:28.504Z,6.10
2023-05-23T17:14:24.589Z,6.90
2023-05-23T17:17:10.992Z,6.40
2023-05-23T17:19:58.464Z,6.40
2023-05-23T17:22:54.034Z,6.90
2023-05-23T17:25:26.407Z,6.80
2023-05-23T17:28:23.760Z,6.60
2023-05-23T17:31:30.797Z,6.50
2023-05-23T17:34:49.354Z,6.30
2023-05-23T17:38:29.348Z,6.70
2023-05-23T17:44:27.873Z,6.80
2023-05-23T17:48:04.872Z,6.60
2023-05-23T17:50:38.316Z,6.20
2023-05-23T18:05:36.518Z,5.90
2023-05-23T18:24:46.339Z,6.40
2023-05-23T18:40:10.482Z,7.40
2023-05-23T18:43:54.535Z,6.90
2023-05-23T18:46:27.155Z,7.20
2023-05-23T18:48:57.788Z,8.20
2023-05-23T18:53:55.121Z,7.70
2023-05-23T18:56:27.287Z,7.40
2023-05-23T18:58:56.228Z,8.10
2023-05-23T19:01:24.723Z,7.70
2023-05-23T19:03:53.698Z,7.60
2023-05-23T19:06:22.874Z,8.00
2023-05-23T19:08:51.854Z,7.90
2023-05-23T19:11:20.306Z,8.20
2023-05-23T19:13:52.171Z,7.70
2023-05-23T19:16:21.322Z,7.70
2023-05-23T19:18:49.889Z,7.50
2023-05-23T19:21:18.376Z,7.60
2023-05-23T19:25:06.547Z,7.80
2023-05-23T19:27:18.039Z,7.70
2023-05-23T19:30:00.906Z,8.10
2023-05-23T19:32:53.898Z,8.20
2023-05-23T19:35:56.749Z,8.70
2023-05-23T19:39:32.734Z,7.60
2023-05-23T19:43:26.112Z,7.80
2023-05-23T19:47:21.403Z,8.60
2023-05-23T19:53:57.596Z,9.20
2023-05-23T20:00:13.323Z,8.90
2023-05-23T20:02:57.484Z,8.80
2023-05-23T20:05:45.030Z,8.20
2023-05-23T20:08:19.782Z,8.90
2023-05-23T20:10:59.676Z,8.60
2023-05-23T20:13:28.390Z,9.30
2023-05-23T20:15:57.150Z,8.90
2023-05-23T20:18:25.738Z,9.50
2023-05-23T20:20:55.445Z,10.30
2023-05-23T20:23:24.044Z,10.20
2023-05-23T20:25:53.261Z,9.40
2023-05-23T20:28:22.139Z,9.10
2023-05-23T20:30:50.778Z,10.70
2023-05-23T20:33:20.315Z,10.40
2023-05-23T20:35:50.096Z,10.00
2023-05-23T20:38:20.329Z,10.60
2023-05-23T20:40:52.580Z,10.90
2023-05-23T20:43:22.535Z,10.50
2023-05-23T20:45:51.091Z,10.50
2023-05-23T20:48:19.907Z,10.80
2023-05-23T20:50:48.735Z,10.30
2023-05-23T20:53:17.813Z,10.70
2023-05-23T20:55:46.343Z,10.40
2023-05-23T20:58:14.792Z,10.20
2023-05-23T21:00:43.769Z,10.50
2023-05-23T21:03:12.543Z,10.30
2023-05-23T21:05:41.474Z,10.80
2023-05-23T21:08:10.226Z,10.50
2023-05-23T21:10:38.730Z,11.00
2023-05-23T21:13:07.225Z,11.00
2023-05-23T21:15:35.808Z,10.90
2023-05-23T21:18:04.522Z,10.60
2023-05-23T21:20:32.934Z,10.90
2023-05-23T21:23:01.440Z,10.90
2023-05-23T21:25:29.891Z,11.00
2023-05-23T21:27:58.876Z,10.50
2023-05-23T21:30:27.375Z,10.60
2023-05-23T21:32:56.176Z,10.10
2023-05-23T21:35:24.670Z,10.70
2023-05-23T21:37:53.188Z,11.00
2023-05-23T21:40:21.749Z,10.50
2023-05-23T21:42:50.207Z,10.30
2023-05-23T21:45:18.755Z,10.90
2023-05-23T21:47:47.220Z,10.70
2023-05-23T21:50:15.800Z,10.40
2023-05-23T21:52:44.173Z,11.60
2023-05-23T21:55:12.567Z,10.10
2023-05-23T21:57:41.198Z,10.60
2023-05-23T22:00:12.885Z,10.40
2023-05-23T22:02:41.427Z,11.30
2023-05-23T22:05:10.240Z,10.20
2023-05-23T22:07:38.528Z,10.10
2023-05-23T22:10:07.688Z,10.00
2023-05-23T22:12:36.462Z,10.10
2023-05-23T22:15:05.841Z,10.70
2023-05-23T22:17:34.820Z,10.90
2023-05-23T22:20:07.653Z,10.50
2023-05-23T22:22:36.599Z,10.70
2023-05-23T22:25:06.459Z,10.50
2023-05-23T22:27:35.153Z,10.10
2023-05-23T22:30:03.999Z,11.30
2023-05-23T22:32:32.406Z,10.10
2023-05-23T22:35:01.070Z,10.20
2023-05-23T22:37:29.377Z,10.20
2023-05-23T22:39:57.657Z,10.20
2023-05-23T22:42:26.090Z,11.00
2023-05-23T22:44:54.652Z,10.30
2023-05-23T22:47:23.060Z,10.90
2023-05-23T22:49:56.634Z,9.80
2023-05-23T22:52:25.703Z,11.60
2023-05-23T22:54:54.286Z,10.70
2023-05-23T22:57:22.786Z,10.80
2023-05-23T22:59:51.488Z,11.20
2023-05-23T23:02:19.782Z,10.00
2023-05-23T23:04:48.617Z,11.30
2023-05-23T23:07:17.092Z,10.80
2023-05-23T23:09:45.852Z,10.50
2023-05-23T23:12:14.179Z,11.20
2023-05-23T23:14:42.523Z,10.70
2023-05-23T23:17:10.830Z,10.80
2023-05-23T23:19:39.477Z,10.80
2023-05-23T23:22:07.873Z,10.40
2023-05-23T23:24:36.166Z,10.80
2023-05-23T23:27:04.763Z,10.90
2023-05-23T23:29:33.189Z,10.50
2023-05-23T23:32:01.716Z,11.00
2023-05-23T23:34:30.227Z,11.00
2023-05-23T23:36:58.848Z,11.20
2023-05-23T23:39:27.204Z,10.80
2023-05-23T23:41:55.729Z,11.40
2023-05-23T23:44:24.199Z,11.10
2023-05-23T23:46:52.776Z,10.40
2023-05-23T23:49:21.276Z,10.60
2023-05-23T23:51:49.761Z,10.90
2023-05-23T23:54:19.245Z,11.00
2023-05-23T23:56:47.727Z,10.50
2023-05-23T23:59:16.134Z,10.80
